createdAt,value
2018-01-03T00:00:54.310Z,2.62
2018-01-03T00:02:04.269Z,2.61
2018-01-03T00:03:13.953Z,2.62
2018-01-03T00:04:23.650Z,2.68
2018-01-03T00:05:33.111Z,2.7
2018-01-03T00:06:42.563Z,2.57
2018-01-03T00:07:52.265Z,2.61
2018-01-03T00:09:01.946Z,2.62
2018-01-03T00:10:11.891Z,2.75
2018-01-03T00:11:21.826Z,2.72
2018-01-03T00:12:31.501Z,2.7
2018-01-03T00:13:41.427Z,2.73
2018-01-03T00:14:51.381Z,2.64
2018-01-03T00:16:01.076Z,2.68
2018-01-03T00:17:11.016Z,2.65
2018-01-03T00:18:20.746Z,2.7
2018-01-03T00:19:30.440Z,2.64
2018-01-03T00:20:40.388Z,2.55
2018-01-03T00:21:50.068Z,2.61
2018-01-03T00:23:00.019Z,2.68
2018-01-03T00:24:09.454Z,2.64
2018-01-03T00:25:19.425Z,2.58
2018-01-03T00:26:29.364Z,2.62
2018-01-03T00:27:39.057Z,2.55
2018-01-03T00:28:48.752Z,2.61
2018-01-03T00:29:58.425Z,2.61
2018-01-03T00:31:08.364Z,2.59
2018-01-03T00:32:18.059Z,2.58
2018-01-03T00:33:28.005Z,2.58
2018-01-03T00:34:37.962Z,2.58
2018-01-03T00:35:47.949Z,2.61
2018-01-03T00:36:57.638Z,2.59
2018-01-03T00:38:07.599Z,2.62
2018-01-03T00:39:17.288Z,2.62
2018-01-03T00:40:26.977Z,2.59
2018-01-03T00:41:36.406Z,2.58
2018-01-03T00:42:46.347Z,2.58
2018-01-03T00:43:56.038Z,2.47
2018-01-03T00:45:05.988Z,2.5
2018-01-03T00:46:15.956Z,2.54
2018-01-03T00:47:25.898Z,2.5
2018-01-03T00:48:35.836Z,2.46
2018-01-03T00:49:45.791Z,2.47
2018-01-03T00:50:55.731Z,2.51
2018-01-03T00:52:05.427Z,2.5
2018-01-03T00:53:15.365Z,2.51
2018-01-03T00:54:25.369Z,2.46
2018-01-03T00:55:35.064Z,2.52
2018-01-03T00:56:45.031Z,2.51
2018-01-03T00:57:54.970Z,2.47
2018-01-03T00:59:04.705Z,2.46
2018-01-03T01:00:14.642Z,2.5
2018-01-03T01:01:24.587Z,2.46
2018-01-03T01:02:34.534Z,2.43
2018-01-03T01:03:44.216Z,2.46
2018-01-03T01:04:54.164Z,2.46
2018-01-03T01:06:04.113Z,2.33
2018-01-03T01:07:13.809Z,2.37
2018-01-03T01:08:23.745Z,2.41
2018-01-03T01:09:33.686Z,2.41
2018-01-03T01:10:43.373Z,2.51
2018-01-03T01:11:53.307Z,2.43
2018-01-03T01:13:02.989Z,2.46
2018-01-03T01:14:12.935Z,2.55
2018-01-03T01:15:22.890Z,2.4
2018-01-03T01:16:32.853Z,2.51
2018-01-03T01:17:42.808Z,2.4
2018-01-03T01:18:52.512Z,2.44
2018-01-03T01:20:02.483Z,2.44
2018-01-03T01:21:12.417Z,2.41
2018-01-03T01:22:22.368Z,2.39
2018-01-03T01:23:32.045Z,2.36
2018-01-03T01:24:41.732Z,2.44
2018-01-03T01:25:51.152Z,2.37
2018-01-03T01:27:01.108Z,2.44
2018-01-03T01:28:11.052Z,2.44
2018-01-03T01:29:20.508Z,2.41
2018-01-03T01:30:30.460Z,2.5
2018-01-03T01:31:40.160Z,2.54
2018-01-03T01:32:49.609Z,2.46
2018-01-03T01:33:59.564Z,2.47
2018-01-03T01:35:09.252Z,2.44
2018-01-03T01:36:18.947Z,2.44
2018-01-03T01:37:28.942Z,2.46
2018-01-03T01:38:38.895Z,2.47
2018-01-03T01:39:48.837Z,2.46
2018-01-03T01:40:58.773Z,2.5
2018-01-03T01:42:08.717Z,2.55
2018-01-03T01:43:18.671Z,2.5
2018-01-03T01:44:28.606Z,2.46
2018-01-03T01:45:38.554Z,2.51
2018-01-03T01:46:48.240Z,2.44
2018-01-03T01:47:58.199Z,2.37
2018-01-03T01:49:08.144Z,2.54
2018-01-03T01:50:18.076Z,2.41
2018-01-03T01:51:28.028Z,2.46
2018-01-03T01:52:37.980Z,2.5
2018-01-03T01:53:47.660Z,2.54
2018-01-03T01:54:57.600Z,2.47
2018-01-03T01:56:07.281Z,2.51
2018-01-03T01:57:17.004Z,2.52
2018-01-03T01:58:26.688Z,2.47
2018-01-03T01:59:36.381Z,2.51
2018-01-03T02:00:46.327Z,2.43
2018-01-03T02:01:56.260Z,2.46
2018-01-03T02:03:06.237Z,2.47
2018-01-03T02:04:16.244Z,2.43
2018-01-03T02:05:25.931Z,2.46
2018-01-03T02:06:35.609Z,2.47
2018-01-03T02:07:45.552Z,2.47
2018-01-03T02:08:55.234Z,2.52
2018-01-03T02:10:04.655Z,2.57
2018-01-03T02:11:14.585Z,2.47
2018-01-03T02:12:24.540Z,2.51
2018-01-03T02:13:33.961Z,2.57
2018-01-03T02:14:43.900Z,2.58
2018-01-03T02:15:53.579Z,2.64
2018-01-03T02:17:03.527Z,2.69
2018-01-03T02:18:13.478Z,2.72
2018-01-03T02:19:23.171Z,2.69
2018-01-03T02:20:33.138Z,2.79
2018-01-03T02:21:43.071Z,2.73
2018-01-03T02:22:53.008Z,2.73
2018-01-03T02:24:02.990Z,2.75
2018-01-03T02:25:12.939Z,2.83
2018-01-03T02:26:22.623Z,2.87
2018-01-03T02:27:32.561Z,2.88
2018-01-03T02:28:42.241Z,2.93
2018-01-03T02:29:51.940Z,2.98
2018-01-03T02:31:01.634Z,3
2018-01-03T02:32:11.330Z,2.95
2018-01-03T02:33:20.765Z,3.05
2018-01-03T02:34:30.469Z,2.93
2018-01-03T02:35:40.425Z,2.95
2018-01-03T02:36:50.381Z,3
2018-01-03T02:38:00.321Z,2.97
2018-01-03T02:39:10.230Z,2.98
2018-01-03T02:40:20.175Z,2.91
2018-01-03T02:41:30.146Z,2.93
2018-01-03T02:42:39.894Z,2.93
2018-01-03T02:43:49.580Z,2.88
2018-01-03T02:44:59.279Z,2.94
2018-01-03T02:46:09.235Z,2.93
2018-01-03T02:47:18.932Z,2.91
2018-01-03T02:48:28.886Z,2.9
2018-01-03T02:49:38.826Z,2.85
2018-01-03T02:50:48.511Z,2.83
2018-01-03T02:51:58.467Z,2.88
2018-01-03T02:53:08.413Z,2.82
2018-01-03T02:54:18.351Z,2.83
2018-01-03T02:55:28.305Z,2.83
2018-01-03T02:56:38.249Z,2.8
2018-01-03T02:57:48.182Z,2.88
2018-01-03T02:58:58.140Z,2.87
2018-01-03T03:00:07.569Z,2.88
2018-01-03T03:01:17.249Z,2.87
2018-01-03T03:02:27.186Z,2.79
2018-01-03T03:03:36.871Z,2.75
2018-01-03T03:04:46.554Z,2.77
2018-01-03T03:05:56.493Z,2.79
2018-01-03T03:07:06.449Z,2.79
2018-01-03T03:08:16.399Z,2.75
2018-01-03T03:09:26.353Z,2.73
2018-01-03T03:10:36.290Z,2.8
2018-01-03T03:11:45.717Z,2.76
2018-01-03T03:12:55.668Z,2.73
2018-01-03T03:14:05.350Z,2.69
2018-01-03T03:15:15.033Z,2.77
2018-01-03T03:16:24.970Z,2.82
2018-01-03T03:17:34.907Z,2.73
2018-01-03T03:18:44.848Z,2.76
2018-01-03T03:19:54.819Z,2.76
2018-01-03T03:21:04.514Z,2.76
2018-01-03T03:22:14.451Z,2.77
2018-01-03T03:23:24.398Z,2.82
2018-01-03T03:24:34.330Z,2.87
2018-01-03T03:25:44.282Z,2.8
2018-01-03T03:26:53.959Z,2.88
2018-01-03T03:28:03.897Z,2.9
2018-01-03T03:29:13.841Z,2.97
2018-01-03T03:30:23.541Z,2.94
2018-01-03T03:31:33.475Z,2.93
2018-01-03T03:32:43.412Z,3
2018-01-03T03:33:53.346Z,3.01
2018-01-03T03:35:03.032Z,2.94
2018-01-03T03:36:12.701Z,3.03
2018-01-03T03:37:22.119Z,2.97
2018-01-03T03:38:32.060Z,2.98
2018-01-03T03:39:41.992Z,3.06
2018-01-03T03:40:51.943Z,3.05
2018-01-03T03:42:01.898Z,3.08
2018-01-03T03:43:11.837Z,3.18
2018-01-03T03:44:21.815Z,3.08
2018-01-03T03:45:31.745Z,3.08
2018-01-03T03:46:41.426Z,3.19
2018-01-03T03:47:51.208Z,3.12
2018-01-03T03:50:43.951Z,3.33
2018-01-03T03:52:25.744Z,3.3
2018-01-03T03:53:35.439Z,3.34
2018-01-03T03:54:45.123Z,3.26
2018-01-03T03:55:55.097Z,3.4
2018-01-03T03:57:05.032Z,3.48
2018-01-03T03:58:14.968Z,3.41
2018-01-03T03:59:24.401Z,3.33
2018-01-03T04:00:34.352Z,3.45
2018-01-03T04:01:44.029Z,3.49
2018-01-03T04:02:53.708Z,3.45
2018-01-03T04:04:03.397Z,3.52
2018-01-03T04:05:13.406Z,3.41
2018-01-03T04:06:23.367Z,3.52
2018-01-03T04:07:33.058Z,3.46
2018-01-03T04:08:42.502Z,3.5
2018-01-03T04:09:52.467Z,3.46
2018-01-03T04:11:02.410Z,3.49
2018-01-03T04:12:12.364Z,3.53
2018-01-03T04:13:22.309Z,3.52
2018-01-03T04:14:31.741Z,3.52
2018-01-03T04:15:41.428Z,3.49
2018-01-03T04:16:51.367Z,3.52
2018-01-03T04:18:01.049Z,3.55
2018-01-03T04:19:11.041Z,3.52
2018-01-03T04:20:21.066Z,3.64
2018-01-03T04:21:31.004Z,3.64
2018-01-03T04:22:40.953Z,3.56
2018-01-03T04:23:50.893Z,3.59
2018-01-03T04:25:00.582Z,3.66
2018-01-03T04:26:10.532Z,3.66
2018-01-03T04:27:20.466Z,3.64
2018-01-03T04:28:30.141Z,3.71
2018-01-03T04:29:39.564Z,3.76
2018-01-03T04:30:49.495Z,3.67
2018-01-03T04:31:59.184Z,3.67
2018-01-03T04:33:08.868Z,3.63
2018-01-03T04:34:18.850Z,3.66
2018-01-03T04:35:28.532Z,3.59
2018-01-03T04:36:38.463Z,3.52
2018-01-03T04:37:48.415Z,3.5
2018-01-03T04:38:58.092Z,3.55
2018-01-03T04:40:07.782Z,3.52
2018-01-03T04:41:17.461Z,3.5
2018-01-03T04:42:27.145Z,3.55
2018-01-03T04:43:37.083Z,3.55
2018-01-03T04:44:46.770Z,3.48
2018-01-03T04:45:56.734Z,3.49
2018-01-03T04:47:06.678Z,3.52
2018-01-03T04:48:16.634Z,3.52
2018-01-03T04:49:26.566Z,3.49
2018-01-03T04:50:36.510Z,3.53
2018-01-03T04:51:46.456Z,3.41
2018-01-03T04:52:56.397Z,3.52
2018-01-03T04:54:06.345Z,3.49
2018-01-03T04:55:16.027Z,3.52
2018-01-03T04:56:25.974Z,3.53
2018-01-03T04:57:35.655Z,3.5
2018-01-03T04:58:45.334Z,3.37
2018-01-03T04:59:55.275Z,3.37
2018-01-03T05:01:05.230Z,3.48
2018-01-03T05:02:14.650Z,3.43
2018-01-03T05:03:24.332Z,3.41
2018-01-03T05:04:34.268Z,3.4
2018-01-03T05:05:44.214Z,3.45
2018-01-03T05:06:53.898Z,3.46
2018-01-03T05:08:03.841Z,3.5
2018-01-03T05:09:13.277Z,3.53
2018-01-03T05:10:23.211Z,3.46
2018-01-03T05:11:33.158Z,3.53
2018-01-03T05:12:43.104Z,3.49
2018-01-03T05:13:53.053Z,3.58
2018-01-03T05:15:02.984Z,3.66
2018-01-03T05:16:12.927Z,3.61
2018-01-03T05:17:22.610Z,3.55
2018-01-03T05:18:32.299Z,3.52
2018-01-03T05:19:41.987Z,3.55
2018-01-03T05:20:51.664Z,3.55
2018-01-03T05:22:01.591Z,3.55
2018-01-03T05:23:11.534Z,3.58
2018-01-03T05:24:21.225Z,3.56
2018-01-03T05:25:31.216Z,3.59
2018-01-03T05:26:41.160Z,3.52
2018-01-03T05:27:51.096Z,3.59
2018-01-03T05:29:00.782Z,3.53
2018-01-03T05:30:10.766Z,3.5
2018-01-03T05:31:20.714Z,3.59
2018-01-03T05:32:30.740Z,3.59
2018-01-03T05:33:40.432Z,3.66
2018-01-03T05:34:50.145Z,3.68
2018-01-03T05:35:59.834Z,3.63
2018-01-03T05:37:09.524Z,3.64
2018-01-03T05:38:19.211Z,3.71
2018-01-03T05:39:28.901Z,3.67
2018-01-03T05:40:38.838Z,3.67
2018-01-03T05:41:48.517Z,3.67
2018-01-03T05:42:58.460Z,3.67
2018-01-03T05:44:08.147Z,3.82
2018-01-03T05:45:18.084Z,3.85
2018-01-03T05:46:28.022Z,3.73
2018-01-03T05:47:37.960Z,3.76
2018-01-03T05:48:47.393Z,3.71
2018-01-03T05:49:57.358Z,3.88
2018-01-03T05:51:07.298Z,3.68
2018-01-03T05:52:17.237Z,3.82
2018-01-03T05:53:27.174Z,3.7
2018-01-03T05:54:37.107Z,3.66
2018-01-03T05:55:46.790Z,3.77
2018-01-03T05:56:56.719Z,3.68
2018-01-03T05:58:06.665Z,3.84
2018-01-03T05:59:16.617Z,3.68
2018-01-03T06:00:26.556Z,3.73
2018-01-03T06:01:36.255Z,3.73
2018-01-03T06:02:45.950Z,3.68
2018-01-03T06:03:55.632Z,3.68
2018-01-03T06:05:05.320Z,3.71
2018-01-03T06:06:15.258Z,3.68
2018-01-03T06:07:24.945Z,3.63
2018-01-03T06:08:34.890Z,3.67
2018-01-03T06:09:44.835Z,3.7
2018-01-03T06:10:54.532Z,3.67
2018-01-03T06:12:04.233Z,3.71
2018-01-03T06:13:13.407Z,3.7
2018-01-03T06:14:23.355Z,3.71
2018-01-03T06:15:32.784Z,3.64
2018-01-03T06:16:42.207Z,3.64
2018-01-03T06:17:52.158Z,3.64
2018-01-03T06:19:02.106Z,3.58
2018-01-03T06:20:11.807Z,3.58
2018-01-03T06:21:21.528Z,3.61
2018-01-03T06:22:31.487Z,3.61
2018-01-03T06:23:41.437Z,3.63
2018-01-03T06:24:50.905Z,3.52
2018-01-03T06:26:00.869Z,3.52
2018-01-03T06:27:10.800Z,3.48
2018-01-03T06:28:20.505Z,3.52
2018-01-03T06:29:30.013Z,3.58
2018-01-03T06:30:39.973Z,3.55
2018-01-03T06:31:50.046Z,3.58
2018-01-03T06:33:00.000Z,3.59
2018-01-03T06:34:09.708Z,3.61
2018-01-03T06:35:19.648Z,3.58
2018-01-03T06:36:29.338Z,3.56
2018-01-03T06:37:39.280Z,3.59
2018-01-03T06:38:49.220Z,3.68
2018-01-03T06:39:58.912Z,3.64
2018-01-03T06:41:08.854Z,3.67
2018-01-03T06:42:18.817Z,3.7
2018-01-03T06:43:28.519Z,3.67
2018-01-03T06:44:38.473Z,3.63
2018-01-03T06:45:48.206Z,3.71
2018-01-03T06:46:58.163Z,3.73
2018-01-03T06:48:08.126Z,3.71
2018-01-03T06:49:18.072Z,3.73
2018-01-03T06:50:27.766Z,3.74
2018-01-03T06:51:37.723Z,3.7
2018-01-03T06:52:47.158Z,3.7
2018-01-03T06:53:57.115Z,3.68
2018-01-03T06:55:07.068Z,3.67
2018-01-03T06:56:17.013Z,3.68
2018-01-03T06:57:26.968Z,3.76
2018-01-03T06:58:36.653Z,3.73
2018-01-03T06:59:46.362Z,3.86
2018-01-03T07:00:56.318Z,3.77
2018-01-03T07:02:06.266Z,3.82
2018-01-03T07:03:16.216Z,3.78
2018-01-03T07:04:25.915Z,3.78
2018-01-03T07:05:35.596Z,3.74
2018-01-03T07:06:45.299Z,3.74
2018-01-03T07:07:55.250Z,3.71
2018-01-03T07:09:05.197Z,3.68
2018-01-03T07:10:15.169Z,3.73
2018-01-03T07:11:25.125Z,3.77
2018-01-03T07:12:34.810Z,3.73
2018-01-03T07:13:44.749Z,3.82
2018-01-03T07:14:54.694Z,3.85
2018-01-03T07:16:04.654Z,3.85
2018-01-03T07:17:14.628Z,3.84
2018-01-03T07:18:24.589Z,3.81
2018-01-03T07:19:34.336Z,3.82
2018-01-03T07:20:44.296Z,3.76
2018-01-03T07:21:54.278Z,3.82
2018-01-03T07:23:03.985Z,3.78
2018-01-03T07:24:13.692Z,3.85
2018-01-03T07:25:23.630Z,3.89
2018-01-03T07:26:33.582Z,3.74
2018-01-03T07:27:43.262Z,3.86
2018-01-03T07:28:52.960Z,3.82
2018-01-03T07:30:02.909Z,3.88
2018-01-03T07:31:39.136Z,3.82
2018-01-03T07:32:49.827Z,3.89
2018-01-03T07:34:17.267Z,3.86
2018-01-03T07:35:35.573Z,3.84
2018-01-03T07:36:45.266Z,3.94
2018-01-03T07:37:56.100Z,3.94
2018-01-03T07:39:06.055Z,3.94
2018-01-03T07:40:15.822Z,3.94
2018-01-03T07:41:25.775Z,3.95
2018-01-03T07:42:36.046Z,3.92
2018-01-03T07:43:46.000Z,3.88
2018-01-03T07:44:55.963Z,3.99
2018-01-03T07:46:05.916Z,3.92
2018-01-03T07:47:15.858Z,3.95
2018-01-03T07:48:26.095Z,3.94
2018-01-03T07:49:36.682Z,3.94
2018-01-03T07:50:46.673Z,3.86
2018-01-03T07:51:56.609Z,3.92
2018-01-03T07:53:06.559Z,3.86
2018-01-03T07:54:16.517Z,3.95
2018-01-03T07:55:26.478Z,3.95
2018-01-03T07:56:36.234Z,3.88
2018-01-03T07:57:46.211Z,3.92
2018-01-03T07:58:56.168Z,3.95
2018-01-03T08:00:06.133Z,3.95
2018-01-03T08:01:15.848Z,3.96
2018-01-03T08:02:25.812Z,3.99
2018-01-03T08:03:35.525Z,4.03
2018-01-03T08:04:44.984Z,3.96
2018-01-03T08:05:54.687Z,4.02
2018-01-03T08:07:09.315Z,4.07
2018-01-03T08:08:19.544Z,4.04
2018-01-03T08:09:29.554Z,4.07
2018-01-03T08:10:39.271Z,4.12
2018-01-03T08:11:49.236Z,4.02
2018-01-03T08:12:59.325Z,4.07
2018-01-03T08:14:09.030Z,4.14
2018-01-03T08:15:18.974Z,4.02
2018-01-03T08:16:28.670Z,4
2018-01-03T08:17:38.634Z,4.04
2018-01-03T08:18:48.581Z,4.1
2018-01-03T08:19:58.289Z,4.09
2018-01-03T08:21:08.257Z,4.09
2018-01-03T08:22:17.982Z,4.1
2018-01-03T08:23:27.949Z,4.1
2018-01-03T08:24:37.641Z,4
2018-01-03T08:25:47.366Z,4.03
2018-01-03T08:26:57.318Z,4.1
2018-01-03T08:28:07.282Z,4.04
2018-01-03T08:29:17.225Z,4.02
2018-01-03T08:30:27.174Z,4.02
2018-01-03T08:31:36.865Z,4.16
2018-01-03T08:32:46.843Z,4.12
2018-01-03T08:33:56.826Z,4.1
2018-01-03T08:35:06.810Z,4.1
2018-01-03T08:36:16.780Z,4.09
2018-01-03T08:37:26.771Z,4.07
2018-01-03T08:38:36.743Z,4.06
2018-01-03T08:39:46.755Z,4.14
2018-01-03T08:40:56.743Z,4.14
2018-01-03T08:42:06.706Z,4.16
2018-01-03T08:43:16.653Z,4.12
2018-01-03T08:44:26.359Z,4.22
2018-01-03T08:45:36.306Z,4.2
2018-01-03T08:46:46.021Z,4.21
2018-01-03T08:47:55.974Z,4.2
2018-01-03T08:49:05.684Z,4.22
2018-01-03T08:50:15.633Z,4.28
2018-01-03T08:51:25.620Z,4.27
2018-01-03T08:52:35.569Z,4.24
2018-01-03T08:53:45.262Z,4.36
2018-01-03T08:54:54.976Z,4.36
2018-01-03T08:56:05.015Z,4.32
2018-01-03T08:57:14.731Z,4.38
2018-01-03T08:58:24.443Z,4.36
2018-01-03T08:59:34.164Z,4.34
2018-01-03T09:00:44.128Z,4.4
2018-01-03T09:01:59.117Z,4.52
2018-01-03T09:03:40.910Z,4.58
2018-01-03T09:07:04.495Z,4.46
2018-01-03T09:08:14.475Z,4.52
2018-01-03T09:09:24.450Z,4.56
2018-01-03T09:10:34.420Z,4.52
2018-01-03T09:11:44.393Z,4.48
2018-01-03T09:12:54.409Z,4.48
2018-01-03T09:14:04.113Z,4.49
2018-01-03T09:15:13.807Z,4.48
2018-01-03T09:16:23.500Z,4.49
2018-01-03T09:17:33.482Z,4.57
2018-01-03T09:18:43.446Z,4.56
2018-01-03T09:19:53.423Z,4.66
2018-01-03T09:21:03.379Z,4.61
2018-01-03T09:22:13.065Z,4.64
2018-01-03T09:23:23.040Z,4.53
2018-01-03T09:24:32.762Z,4.64
2018-01-03T09:25:42.735Z,4.66
2018-01-03T09:26:52.464Z,4.66
2018-01-03T09:28:02.437Z,4.67
2018-01-03T09:29:12.401Z,4.58
2018-01-03T09:30:22.392Z,4.64
2018-01-03T09:31:32.081Z,4.7
2018-01-03T09:32:42.285Z,4.7
2018-01-03T09:33:51.731Z,4.7
2018-01-03T09:35:01.695Z,4.74
2018-01-03T09:36:11.678Z,4.74
2018-01-03T09:37:21.383Z,4.76
2018-01-03T09:38:31.109Z,4.84
2018-01-03T09:39:41.065Z,4.68
2018-01-03T09:40:50.796Z,4.67
2018-01-03T09:42:00.799Z,4.79
2018-01-03T09:43:10.770Z,4.7
2018-01-03T09:44:20.558Z,4.87
2018-01-03T09:45:30.544Z,4.82
2018-01-03T09:46:40.510Z,4.75
2018-01-03T09:47:50.477Z,4.82
2018-01-03T09:49:00.162Z,4.87
2018-01-03T09:50:10.120Z,4.89
2018-01-03T09:51:20.094Z,4.83
2018-01-03T09:52:29.790Z,4.89
2018-01-03T09:53:39.746Z,4.86
2018-01-03T09:54:49.436Z,4.84
2018-01-03T09:55:59.399Z,4.84
2018-01-03T09:57:09.367Z,4.87
2018-01-03T09:58:19.343Z,4.82
2018-01-03T09:59:29.031Z,4.82
2018-01-03T10:00:38.977Z,4.86
2018-01-03T10:01:48.936Z,4.87
2018-01-03T10:02:58.878Z,4.84
2018-01-03T10:04:08.317Z,4.86
2018-01-03T10:05:18.520Z,4.83
2018-01-03T10:06:28.481Z,4.9
2018-01-03T10:07:38.443Z,4.98
2018-01-03T10:08:48.397Z,4.89
2018-01-03T10:09:58.351Z,4.94
2018-01-03T10:11:08.052Z,4.94
2018-01-03T10:12:17.975Z,5.01
2018-01-03T10:14:31.602Z,5.02
2018-01-03T10:15:41.560Z,5
2018-01-03T10:16:51.524Z,5.08
2018-01-03T10:18:01.500Z,5.02
2018-01-03T10:19:11.461Z,5.08
2018-01-03T10:20:24.695Z,5.12
2018-01-03T10:22:06.480Z,5.08
2018-01-03T10:23:15.926Z,5.13
2018-01-03T10:24:57.722Z,5.12
2018-01-03T10:26:07.428Z,5.13
2018-01-03T10:27:17.143Z,5.13
2018-01-03T10:28:27.118Z,5.26
2018-01-03T10:29:37.075Z,5.2
2018-01-03T10:30:47.033Z,5.25
2018-01-03T10:31:56.734Z,5.33
2018-01-03T10:33:06.695Z,5.33
2018-01-03T10:34:16.402Z,5.38
2018-01-03T10:35:26.354Z,5.37
2018-01-03T10:36:36.300Z,5.37
2018-01-03T10:37:46.289Z,5.38
2018-01-03T10:38:55.750Z,5.41
2018-01-03T10:40:05.727Z,5.4
2018-01-03T10:41:15.693Z,5.52
2018-01-03T10:42:25.659Z,5.46
2018-01-03T10:43:35.607Z,5.4
2018-01-03T10:44:45.600Z,5.44
2018-01-03T10:45:55.612Z,5.41
2018-01-03T10:47:05.331Z,5.43
2018-01-03T10:48:15.053Z,5.47
2018-01-03T10:49:24.999Z,5.44
2018-01-03T10:50:34.433Z,5.55
2018-01-03T10:51:44.640Z,5.49
2018-01-03T10:52:54.367Z,5.55
2018-01-03T10:54:04.312Z,5.54
2018-01-03T10:55:14.280Z,5.58
2018-01-03T10:56:24.235Z,5.56
2018-01-03T10:57:34.228Z,5.56
2018-01-03T10:58:43.915Z,5.56
2018-01-03T10:59:53.931Z,5.64
2018-01-03T11:01:03.934Z,5.67
2018-01-03T11:02:13.694Z,5.72
2018-01-03T11:03:23.681Z,5.72
2018-01-03T11:04:33.700Z,5.7
2018-01-03T11:05:43.690Z,5.64
2018-01-03T11:06:53.708Z,5.65
2018-01-03T11:08:03.676Z,5.72
2018-01-03T11:09:13.641Z,5.76
2018-01-03T11:10:23.086Z,5.81
2018-01-03T11:11:33.122Z,5.74
2018-01-03T11:12:42.826Z,5.69
2018-01-03T11:13:52.271Z,5.72
2018-01-03T11:15:02.238Z,5.79
2018-01-03T11:16:11.967Z,5.8
2018-01-03T11:17:21.908Z,5.87
2018-01-03T11:18:31.865Z,5.88
2018-01-03T11:19:41.570Z,5.9
2018-01-03T11:20:51.281Z,5.95
2018-01-03T11:22:01.284Z,5.95
2018-01-03T11:23:11.279Z,6.09
2018-01-03T11:24:21.500Z,6.07
2018-01-03T11:25:31.185Z,5.94
2018-01-03T11:26:41.163Z,6.12
2018-01-03T11:27:51.137Z,6.09
2018-01-03T11:29:01.328Z,6.12
2018-01-03T11:30:11.034Z,6.16
2018-01-03T11:31:21.006Z,6.15
2018-01-03T11:32:30.721Z,6.2
2018-01-03T11:33:40.427Z,6.28
2018-01-03T11:34:50.180Z,6.28
2018-01-03T11:36:00.192Z,6.34
2018-01-03T11:37:10.208Z,6.22
2018-01-03T11:38:19.913Z,6.34
2018-01-03T11:39:29.870Z,6.38
2018-01-03T11:40:39.883Z,6.38
2018-01-03T11:41:49.840Z,6.53
2018-01-03T11:42:59.811Z,6.52
2018-01-03T11:44:09.775Z,6.62
2018-01-03T11:45:19.730Z,6.72
2018-01-03T11:46:29.233Z,6.82
2018-01-03T11:47:38.668Z,6.8
2018-01-03T11:48:48.629Z,6.87
2018-01-03T11:49:58.076Z,6.89
2018-01-03T11:51:07.501Z,6.86
2018-01-03T11:52:17.438Z,6.96
2018-01-03T11:53:27.390Z,7.03
2018-01-03T11:54:37.370Z,7.28
2018-01-03T11:55:47.356Z,7.5
2018-01-03T11:56:57.059Z,7.77
2018-01-03T11:58:07.014Z,7.84
2018-01-03T11:59:16.974Z,8.06
2018-01-03T12:00:26.940Z,8.13
2018-01-03T12:01:36.909Z,8.13
2018-01-03T12:02:46.627Z,8.09
2018-01-03T12:03:56.581Z,8.06
2018-01-03T12:05:06.560Z,7.96
2018-01-03T12:06:16.268Z,7.95
2018-01-03T12:07:25.708Z,7.93
2018-01-03T12:08:35.672Z,7.99
2018-01-03T12:09:45.380Z,7.93
2018-01-03T12:10:55.336Z,7.96
2018-01-03T12:12:05.303Z,8.01
2018-01-03T12:13:14.489Z,7.98
2018-01-03T12:14:23.924Z,7.99
2018-01-03T12:15:33.925Z,7.93
2018-01-03T12:16:43.640Z,7.96
2018-01-03T12:17:53.589Z,7.84
2018-01-03T12:19:03.276Z,7.85
2018-01-03T12:20:13.231Z,7.85
2018-01-03T12:21:23.193Z,7.81
2018-01-03T12:22:32.886Z,7.78
2018-01-03T12:23:42.600Z,7.72
2018-01-03T12:24:52.560Z,7.64
2018-01-03T12:26:02.748Z,7.53
2018-01-03T12:27:12.769Z,7.37
2018-01-03T12:28:22.757Z,7.15
2018-01-03T12:29:32.780Z,7.1
2018-01-03T12:31:14.563Z,6.97
2018-01-03T12:32:34.533Z,6.95
2018-01-03T12:33:44.495Z,6.96
2018-01-03T12:35:26.326Z,6.96
2018-01-03T12:37:39.958Z,7
2018-01-03T12:38:49.945Z,6.97
2018-01-03T12:39:59.666Z,7
2018-01-03T12:41:09.623Z,7.19
2018-01-03T12:42:19.333Z,7.31
2018-01-03T12:43:29.299Z,7.14
2018-01-03T12:44:39.268Z,7.25
2018-01-03T12:45:49.255Z,7.19
2018-01-03T12:46:59.219Z,7.33
2018-01-03T12:48:08.936Z,7.28
2018-01-03T12:49:18.942Z,7.29
2018-01-03T12:50:28.990Z,7.23
2018-01-03T12:51:38.951Z,7.26
2018-01-03T12:52:48.930Z,7.29
2018-01-03T12:53:58.634Z,7.31
2018-01-03T12:55:08.343Z,7.32
2018-01-03T12:56:18.046Z,7.36
2018-01-03T12:57:28.035Z,7.37
2018-01-03T12:58:38.005Z,7.37
2018-01-03T12:59:47.700Z,7.5
2018-01-03T13:00:57.656Z,7.51
2018-01-03T13:02:07.647Z,7.58
2018-01-03T13:03:17.609Z,7.61
2018-01-03T13:04:27.559Z,7.53
2018-01-03T13:05:37.505Z,7.55
2018-01-03T13:06:47.218Z,7.5
2018-01-03T13:07:57.218Z,7.51
2018-01-03T13:09:07.182Z,7.44
2018-01-03T13:10:17.161Z,7.44
2018-01-03T13:11:27.116Z,7.43
2018-01-03T13:12:37.063Z,7.39
2018-01-03T13:13:47.033Z,7.55
2018-01-03T13:14:56.747Z,7.41
2018-01-03T13:16:06.710Z,7.43
2018-01-03T13:17:16.616Z,7.46
2018-01-03T13:18:26.313Z,7.46
2018-01-03T13:19:35.776Z,7.37
2018-01-03T13:20:45.728Z,7.36
2018-01-03T13:21:55.690Z,7.37
2018-01-03T13:23:05.635Z,7.32
2018-01-03T13:24:15.609Z,7.36
2018-01-03T13:25:25.549Z,7.37
2018-01-03T13:26:35.521Z,7.37
2018-01-03T13:27:45.464Z,7.32
2018-01-03T13:28:55.169Z,7.36
2018-01-03T13:30:05.126Z,7.31
2018-01-03T13:31:15.080Z,7.36
2018-01-03T13:32:25.092Z,7.37
2018-01-03T13:33:35.087Z,7.4
2018-01-03T13:34:45.062Z,7.48
2018-01-03T13:35:55.025Z,7.61
2018-01-03T13:37:04.983Z,7.69
2018-01-03T13:38:14.937Z,7.84
2018-01-03T13:39:24.881Z,7.87
2018-01-03T13:40:34.835Z,7.91
2018-01-03T13:41:44.787Z,8.08
2018-01-03T13:42:54.799Z,8.06
2018-01-03T13:44:04.773Z,8.16
2018-01-03T13:45:14.731Z,8.09
2018-01-03T13:46:24.700Z,8.26
2018-01-03T13:47:34.399Z,8.28
2018-01-03T13:48:44.112Z,8.36
2018-01-03T13:49:54.073Z,8.46
2018-01-03T13:51:03.776Z,8.61
2018-01-03T13:52:13.740Z,8.61
2018-01-03T13:53:23.697Z,8.63
2018-01-03T13:54:33.386Z,8.6
2018-01-03T13:55:43.342Z,8.6
2018-01-03T13:56:53.316Z,8.63
2018-01-03T13:58:03.020Z,8.66
2018-01-03T13:59:12.997Z,8.69
2018-01-03T14:00:22.943Z,8.79
2018-01-03T14:01:32.654Z,8.74
2018-01-03T14:02:42.378Z,8.81
2018-01-03T14:03:52.353Z,8.77
2018-01-03T14:05:02.316Z,8.72
2018-01-03T14:06:12.269Z,8.56
2018-01-03T14:07:21.992Z,8.63
2018-01-03T14:08:31.950Z,8.57
2018-01-03T14:09:41.920Z,8.5
2018-01-03T14:10:51.867Z,8.44
2018-01-03T14:12:01.568Z,8.45
2018-01-03T14:13:11.542Z,8.52
2018-01-03T14:14:21.257Z,8.54
2018-01-03T14:15:31.240Z,8.68
2018-01-03T14:16:41.245Z,8.66
2018-01-03T14:17:51.257Z,8.54
2018-01-03T14:19:01.218Z,8.34
2018-01-03T14:20:11.178Z,8.32
2018-01-03T14:21:21.186Z,8.18
2018-01-03T14:22:31.134Z,8.06
2018-01-03T14:23:41.112Z,8.02
2018-01-03T14:24:51.078Z,7.88
2018-01-03T14:26:01.023Z,7.85
2018-01-03T14:27:10.456Z,7.8
2018-01-03T14:28:20.418Z,7.8
2018-01-03T14:29:30.378Z,7.75
2018-01-03T14:30:40.342Z,7.64
2018-01-03T14:31:50.296Z,7.69
2018-01-03T14:32:59.989Z,7.67
2018-01-03T14:34:09.944Z,7.62
2018-01-03T14:35:19.913Z,7.61
2018-01-03T14:36:29.609Z,7.59
2018-01-03T14:37:39.561Z,7.48
2018-01-03T14:38:49.532Z,7.51
2018-01-03T14:39:59.495Z,7.48
2018-01-03T14:41:09.199Z,7.5
2018-01-03T14:42:19.189Z,7.41
2018-01-03T14:43:28.889Z,7.39
2018-01-03T14:44:38.832Z,7.39
2018-01-03T14:45:48.787Z,7.41
2018-01-03T14:46:58.753Z,7.43
2018-01-03T14:48:08.457Z,7.29
2018-01-03T14:49:18.426Z,7.32
2018-01-03T14:50:28.125Z,7.33
2018-01-03T14:51:37.819Z,7.39
2018-01-03T14:52:47.774Z,7.4
2018-01-03T14:53:57.714Z,7.4
2018-01-03T14:55:07.164Z,7.39
2018-01-03T14:56:17.122Z,7.32
2018-01-03T14:57:26.813Z,7.36
2018-01-03T14:58:36.526Z,7.29
2018-01-03T14:59:46.479Z,7.28
2018-01-03T15:00:56.178Z,7.26
2018-01-03T15:02:06.173Z,7.29
2018-01-03T15:03:15.910Z,7.33
2018-01-03T15:04:25.881Z,7.21
2018-01-03T15:05:35.882Z,7.33
2018-01-03T15:06:45.337Z,7.31
2018-01-03T15:07:55.274Z,7.14
2018-01-03T15:09:04.990Z,7.22
2018-01-03T15:10:14.745Z,7.14
2018-01-03T15:11:24.688Z,7.03
2018-01-03T15:12:34.138Z,7.04
2018-01-03T15:13:44.083Z,7.05
2018-01-03T15:14:54.038Z,7.01
2018-01-03T15:16:03.988Z,7.04
2018-01-03T15:17:13.441Z,6.87
2018-01-03T15:18:23.169Z,6.85
2018-01-03T15:19:33.124Z,6.89
2018-01-03T15:20:43.060Z,6.77
2018-01-03T15:21:53.006Z,6.72
2018-01-03T15:23:02.978Z,6.74
2018-01-03T15:24:12.718Z,6.68
2018-01-03T15:25:22.675Z,6.56
2018-01-03T15:26:32.620Z,6.67
2018-01-03T15:27:42.318Z,6.6
2018-01-03T15:28:52.023Z,6.53
2018-01-03T15:30:01.973Z,6.53
2018-01-03T15:31:11.446Z,6.5
2018-01-03T15:32:21.163Z,6.44
2018-01-03T15:33:30.867Z,6.46
2018-01-03T15:34:40.566Z,6.35
2018-01-03T15:35:50.005Z,6.41
2018-01-03T15:36:59.704Z,6.34
2018-01-03T15:38:09.154Z,6.28
2018-01-03T15:39:18.847Z,6.25
2018-01-03T15:40:28.809Z,6.25
2018-01-03T15:41:38.770Z,6.16
2018-01-03T15:42:48.731Z,6.15
2018-01-03T15:43:58.677Z,6.07